Banbury, United Kingdom
Current Conditions -  °F | °C
As of 8:50 PM on Tuesday 27 Jan 2015 (Local Time) from EGTK Reporting Station
Overcast Overcast  
Wind Chill:   Ceiling: 2700
Heat Index:   Visibility: 6mi
Dew Point:   Wind: 6mph
Humidity: 87%   Direction: 220°SW
Pressure: 30.15"   Gusts: NA
Location:  52.06°N, 1.34°W
Report Text: EGTK 272050Z 22005KT 9999 OVC027 06/04 Q1021
Loading
Personal Weather Stations






























Interactive Weather Map New forecast layout! Learn more

10-Day Weather Forecast

Advertisements
Track Severe Weather on mobile